SDM783 UOOO-UUEE
Flight info
| Callsign | SDM783 |
|---|---|
| Flight time | N/A |
| Altitude | 38000 |
| Route | BI3B BI T791 ARKUK T818 USINA T187 ROMTA ROMTA3F |
| Aircraft | B77W/H-SDE1E2E3FGHIJ2J3J4J5M1RWXY/LB1D1 |
Departure
| Time | 2026-04-21 14:41 |
|---|---|
| Airport | Alykel International Airport (UOOO) |
Arrival
| Time | N/A |
|---|---|
| Airport | Sheremetyevo International Airport (UUEE) |
| Time | Latitude | Longitude | Altitude | Speed | Heading |
|---|---|---|---|---|---|
| 2026-04-21 14:13 | 69.32324 | 87.34397 | 619 ft | 0 kts | 211° |
| 2026-04-21 14:15 | 69.32325 | 87.34399 | 619 ft | 0 kts | 211° |
| 2026-04-21 14:16 | 69.32326 | 87.34400 | 619 ft | 0 kts | 211° |
| 2026-04-21 14:16 | 69.32327 | 87.34402 | 619 ft | 0 kts | 211° |
| 2026-04-21 14:16 | 69.32328 | 87.34404 | 619 ft | 0 kts | 211° |
| 2026-04-21 14:16 | 69.32329 | 87.34405 | 619 ft | 0 kts | 211° |
| 2026-04-21 14:17 | 69.32330 | 87.34407 | 619 ft | 0 kts | 211° |
| 2026-04-21 14:17 | 69.32331 | 87.34409 | 619 ft | 0 kts | 211° |
| 2026-04-21 14:17 | 69.32332 | 87.34410 | 619 ft | 0 kts | 211° |
| 2026-04-21 14:17 | 69.32333 | 87.34412 | 619 ft | 0 kts | 211° |
| 2026-04-21 14:18 | 69.32334 | 87.34414 | 619 ft | 0 kts | 211° |
| 2026-04-21 14:18 | 69.32335 | 87.34416 | 619 ft | 0 kts | 211° |
| 2026-04-21 14:18 | 69.32336 | 87.34417 | 620 ft | 0 kts | 211° |
| 2026-04-21 14:18 | 69.32337 | 87.34419 | 622 ft | 0 kts | 211° |
| 2026-04-21 14:19 | 69.32338 | 87.34420 | 622 ft | 0 kts | 211° |
| 2026-04-21 14:19 | 69.32339 | 87.34422 | 622 ft | 0 kts | 211° |
| 2026-04-21 14:19 | 69.32340 | 87.34424 | 622 ft | 0 kts | 211° |
| 2026-04-21 14:19 | 69.32341 | 87.34425 | 622 ft | 0 kts | 211° |
| 2026-04-21 14:20 | 69.32341 | 87.34427 | 622 ft | 0 kts | 211° |
| 2026-04-21 14:20 | 69.32342 | 87.34428 | 622 ft | 0 kts | 211° |
| 2026-04-21 14:20 | 69.32343 | 87.34430 | 622 ft | 0 kts | 211° |
| 2026-04-21 14:20 | 69.32344 | 87.34432 | 622 ft | 0 kts | 211° |
| 2026-04-21 14:21 | 69.32345 | 87.34433 | 622 ft | 0 kts | 211° |
| 2026-04-21 14:21 | 69.32346 | 87.34435 | 622 ft | 0 kts | 211° |
| 2026-04-21 14:21 | 69.32347 | 87.34436 | 622 ft | 0 kts | 211° |
| 2026-04-21 14:21 | 69.32348 | 87.34438 | 622 ft | 0 kts | 211° |
| 2026-04-21 14:22 | 69.32349 | 87.34440 | 622 ft | 0 kts | 211° |
| 2026-04-21 14:22 | 69.32350 | 87.34441 | 622 ft | 0 kts | 211° |
| 2026-04-21 14:22 | 69.32351 | 87.34443 | 622 ft | 0 kts | 211° |
| 2026-04-21 14:22 | 69.32352 | 87.34444 | 623 ft | 0 kts | 211° |
| 2026-04-21 14:23 | 69.32353 | 87.34446 | 623 ft | 0 kts | 211° |
| 2026-04-21 14:23 | 69.32354 | 87.34448 | 623 ft | 0 kts | 211° |
| 2026-04-21 14:23 | 69.32354 | 87.34449 | 606 ft | 0 kts | 211° |
| 2026-04-21 14:23 | 69.32355 | 87.34451 | 606 ft | 0 kts | 211° |
| 2026-04-21 14:24 | 69.32356 | 87.34452 | 606 ft | 0 kts | 211° |
| 2026-04-21 14:24 | 69.32357 | 87.34454 | 606 ft | 0 kts | 211° |
| 2026-04-21 14:24 | 69.32358 | 87.34456 | 606 ft | 0 kts | 211° |
| 2026-04-21 14:24 | 69.32359 | 87.34457 | 623 ft | 0 kts | 211° |
| 2026-04-21 14:25 | 69.32360 | 87.34459 | 623 ft | 0 kts | 211° |
| 2026-04-21 14:25 | 69.32361 | 87.34460 | 623 ft | 0 kts | 211° |
| 2026-04-21 14:25 | 69.32362 | 87.34462 | 623 ft | 0 kts | 211° |
| 2026-04-21 14:25 | 69.32363 | 87.34463 | 623 ft | 0 kts | 211° |
| 2026-04-21 14:26 | 69.32364 | 87.34465 | 623 ft | 0 kts | 211° |
| 2026-04-21 14:26 | 69.32365 | 87.34467 | 623 ft | 0 kts | 211° |
| 2026-04-21 14:26 | 69.32366 | 87.34468 | 625 ft | 0 kts | 211° |
| 2026-04-21 14:26 | 69.32367 | 87.34470 | 624 ft | 0 kts | 211° |
| 2026-04-21 14:27 | 69.32367 | 87.34471 | 624 ft | 0 kts | 211° |
| 2026-04-21 14:27 | 69.32368 | 87.34473 | 624 ft | 0 kts | 211° |
| 2026-04-21 14:27 | 69.32369 | 87.34475 | 624 ft | 0 kts | 211° |
| 2026-04-21 14:27 | 69.32370 | 87.34476 | 624 ft | 0 kts | 211° |
| 2026-04-21 14:28 | 69.32371 | 87.34478 | 624 ft | 0 kts | 211° |
| 2026-04-21 14:28 | 69.32372 | 87.34479 | 624 ft | 0 kts | 211° |
| 2026-04-21 14:28 | 69.32373 | 87.34481 | 624 ft | 0 kts | 211° |
| 2026-04-21 14:28 | 69.32374 | 87.34482 | 624 ft | 0 kts | 211° |
| 2026-04-21 14:29 | 69.32375 | 87.34484 | 623 ft | 0 kts | 211° |
| 2026-04-21 14:29 | 69.32376 | 87.34486 | 623 ft | 0 kts | 211° |
| 2026-04-21 14:29 | 69.32377 | 87.34487 | 624 ft | 0 kts | 211° |
| 2026-04-21 14:29 | 69.32379 | 87.34491 | 624 ft | 0 kts | 211° |
| 2026-04-21 14:37 | 69.32392 | 87.34514 | 622 ft | 2 kts | 211° |
| 2026-04-21 14:37 | 69.32406 | 87.34538 | 623 ft | 2 kts | 211° |
| 2026-04-21 14:37 | 69.32420 | 87.34562 | 608 ft | 2 kts | 211° |
| 2026-04-21 14:37 | 69.32434 | 87.34586 | 624 ft | 2 kts | 211° |
| 2026-04-21 14:38 | 69.32446 | 87.34606 | 619 ft | 0 kts | 211° |
| 2026-04-21 14:38 | 69.32382 | 87.35482 | 624 ft | 0 kts | 212° |
| 2026-04-21 14:40 | 69.32343 | 87.35413 | 618 ft | 23 kts | 212° |
| 2026-04-21 14:40 | 69.32096 | 87.34972 | 612 ft | 59 kts | 212° |
| 2026-04-21 14:40 | 69.31538 | 87.33991 | 592 ft | 137 kts | 212° |
| 2026-04-21 14:41 | 69.30541 | 87.32296 | 927 ft | 181 kts | 209° |
| 2026-04-21 14:41 | 69.29439 | 87.30503 | 1989 ft | 177 kts | 219° |
| 2026-04-21 14:41 | 69.28809 | 87.27523 | 2668 ft | 190 kts | 263° |
| 2026-04-21 14:41 | 69.29050 | 87.23625 | 2948 ft | 216 kts | 287° |
| 2026-04-21 14:42 | 69.29535 | 87.19427 | 3528 ft | 230 kts | 286° |
| 2026-04-21 14:42 | 69.30026 | 87.15075 | 4382 ft | 234 kts | 286° |
| 2026-04-21 14:42 | 69.30517 | 87.10648 | 5313 ft | 236 kts | 286° |
| 2026-04-21 14:42 | 69.31002 | 87.06195 | 6212 ft | 238 kts | 285° |
| 2026-04-21 14:43 | 69.31486 | 87.01681 | 7036 ft | 243 kts | 285° |
| 2026-04-21 14:43 | 69.31979 | 86.97016 | 7766 ft | 252 kts | 285° |
| 2026-04-21 14:43 | 69.32482 | 86.92211 | 8628 ft | 256 kts | 285° |
| 2026-04-21 14:43 | 69.32986 | 86.87349 | 9562 ft | 259 kts | 285° |
| 2026-04-21 14:44 | 69.33494 | 86.82411 | 10435 ft | 263 kts | 285° |
| 2026-04-21 14:44 | 69.34019 | 86.77276 | 10883 ft | 284 kts | 285° |
| 2026-04-21 14:44 | 69.34591 | 86.71646 | 11125 ft | 312 kts | 285° |
| 2026-04-21 14:44 | 69.35212 | 86.65517 | 11561 ft | 332 kts | 285° |
| 2026-04-21 14:45 | 69.35859 | 86.59127 | 12433 ft | 342 kts | 285° |
| 2026-04-21 14:45 | 69.36516 | 86.52580 | 13490 ft | 348 kts | 285° |
| 2026-04-21 14:45 | 69.37181 | 86.45920 | 14504 ft | 354 kts | 285° |
| 2026-04-21 14:45 | 69.37966 | 86.39252 | 15469 ft | 359 kts | 293° |
| 2026-04-21 14:46 | 69.39043 | 86.32797 | 16452 ft | 364 kts | 296° |
| 2026-04-21 14:46 | 69.40185 | 86.26319 | 17412 ft | 368 kts | 296° |
| 2026-04-21 14:46 | 69.40984 | 86.19489 | 18119 ft | 376 kts | 277° |
| 2026-04-21 14:46 | 69.40874 | 86.12037 | 18871 ft | 381 kts | 264° |
| 2026-04-21 14:47 | 69.40548 | 86.04456 | 19556 ft | 389 kts | 264° |
| 2026-04-21 14:47 | 69.40242 | 85.96789 | 20407 ft | 393 kts | 265° |
| 2026-04-21 14:47 | 69.39940 | 85.89020 | 21272 ft | 397 kts | 265° |
| 2026-04-21 14:47 | 69.39637 | 85.81170 | 22074 ft | 403 kts | 265° |
| 2026-04-21 14:48 | 69.39331 | 85.73217 | 22832 ft | 409 kts | 265° |
| 2026-04-21 14:48 | 69.39019 | 85.65132 | 23583 ft | 415 kts | 265° |
| 2026-04-21 14:48 | 69.38699 | 85.56927 | 24242 ft | 420 kts | 265° |
| 2026-04-21 14:48 | 69.38374 | 85.48654 | 24867 ft | 425 kts | 265° |
| 2026-04-21 14:49 | 69.38040 | 85.40275 | 25493 ft | 430 kts | 265° |
| 2026-04-21 14:49 | 69.37699 | 85.31814 | 26089 ft | 434 kts | 265° |
| 2026-04-21 14:49 | 69.37349 | 85.23239 | 26670 ft | 439 kts | 265° |
| 2026-04-21 14:49 | 69.36991 | 85.14593 | 27244 ft | 444 kts | 265° |
| 2026-04-21 14:50 | 69.36625 | 85.05837 | 27812 ft | 449 kts | 265° |
| 2026-04-21 14:50 | 69.36251 | 84.97018 | 28354 ft | 454 kts | 265° |
| 2026-04-21 14:50 | 69.35868 | 84.88093 | 28891 ft | 458 kts | 265° |
| 2026-04-21 14:50 | 69.35476 | 84.79064 | 29406 ft | 463 kts | 265° |
| 2026-04-21 14:51 | 69.35082 | 84.70100 | 29881 ft | 467 kts | 265° |
| 2026-04-21 14:51 | 69.34674 | 84.60936 | 30334 ft | 471 kts | 265° |
| 2026-04-21 14:51 | 69.34258 | 84.51709 | 30675 ft | 475 kts | 265° |
| 2026-04-21 14:51 | 69.33834 | 84.42406 | 31079 ft | 477 kts | 265° |
| 2026-04-21 14:52 | 69.33403 | 84.33104 | 31541 ft | 477 kts | 265° |
| 2026-04-21 14:52 | 69.32967 | 84.23790 | 32000 ft | 477 kts | 264° |
| 2026-04-21 14:52 | 69.32526 | 84.14472 | 32432 ft | 478 kts | 264° |
| 2026-04-21 14:52 | 69.32079 | 84.05139 | 32867 ft | 479 kts | 264° |
| 2026-04-21 14:53 | 69.31627 | 83.95796 | 33293 ft | 480 kts | 264° |
| 2026-04-21 14:53 | 69.31169 | 83.86429 | 33732 ft | 481 kts | 264° |
| 2026-04-21 14:53 | 69.30705 | 83.77062 | 34146 ft | 481 kts | 264° |
| 2026-04-21 14:53 | 69.30235 | 83.67689 | 34517 ft | 482 kts | 264° |
| 2026-04-21 14:54 | 69.29761 | 83.58326 | 34896 ft | 481 kts | 264° |
| 2026-04-21 14:54 | 69.29282 | 83.48970 | 35261 ft | 481 kts | 264° |
| 2026-04-21 14:54 | 69.28798 | 83.39630 | 35619 ft | 481 kts | 264° |
| 2026-04-21 14:54 | 69.28309 | 83.30295 | 35968 ft | 481 kts | 263° |
| 2026-04-21 14:55 | 69.27815 | 83.20942 | 36172 ft | 484 kts | 263° |
| 2026-04-21 14:55 | 69.26801 | 83.02061 | 36218 ft | 485 kts | 263° |
| 2026-04-21 14:56 | 69.25781 | 82.83509 | 36215 ft | 479 kts | 263° |
| 2026-04-21 14:56 | 69.24743 | 82.64979 | 36226 ft | 478 kts | 263° |
| 2026-04-21 14:56 | 69.24218 | 82.55753 | 36534 ft | 475 kts | 263° |
| 2026-04-21 14:57 | 69.23692 | 82.46592 | 36948 ft | 472 kts | 263° |
| 2026-04-21 14:57 | 69.23165 | 82.37497 | 37353 ft | 469 kts | 263° |
| 2026-04-21 14:57 | 69.22635 | 82.28452 | 37772 ft | 466 kts | 263° |
| 2026-04-21 14:57 | 69.22181 | 82.20747 | 38131 ft | 464 kts | 263° |
| 2026-04-21 14:58 | 69.21956 | 82.16966 | 38260 ft | 464 kts | 262° |
| 2026-04-21 14:58 | 69.20868 | 81.98792 | 38226 ft | 476 kts | 262° |
| 2026-04-21 14:59 | 69.19734 | 81.80231 | 38220 ft | 486 kts | 262° |
| 2026-04-21 14:59 | 69.18560 | 81.61404 | 38202 ft | 486 kts | 262° |
| 2026-04-21 15:00 | 69.17379 | 81.42846 | 38197 ft | 479 kts | 262° |
| 2026-04-21 15:00 | 69.16192 | 81.24478 | 38206 ft | 477 kts | 262° |
| 2026-04-21 15:01 | 69.14989 | 81.06173 | 38198 ft | 476 kts | 262° |
| 2026-04-21 15:01 | 69.13768 | 80.87912 | 38204 ft | 476 kts | 262° |
| 2026-04-21 15:02 | 69.12526 | 80.69649 | 38199 ft | 477 kts | 261° |
| 2026-04-21 15:02 | 69.11264 | 80.51392 | 38199 ft | 478 kts | 261° |
| 2026-04-21 15:03 | 69.09979 | 80.33110 | 38200 ft | 479 kts | 261° |
| 2026-04-21 15:03 | 69.08670 | 80.14774 | 38185 ft | 480 kts | 261° |
| 2026-04-21 15:04 | 69.07342 | 79.96476 | 38189 ft | 481 kts | 261° |
| 2026-04-21 15:04 | 69.05994 | 79.78146 | 38179 ft | 481 kts | 261° |
| 2026-04-21 15:05 | 69.04632 | 79.59848 | 38178 ft | 481 kts | 261° |
| 2026-04-21 15:05 | 69.02576 | 79.32538 | 38176 ft | 481 kts | 260° |
| 2026-04-21 15:06 | 69.01181 | 79.14324 | 38176 ft | 480 kts | 260° |
| 2026-04-21 15:06 | 68.99758 | 78.96149 | 38169 ft | 480 kts | 260° |
| 2026-04-21 15:07 | 68.98275 | 78.78014 | 38167 ft | 479 kts | 259° |
| 2026-04-21 15:07 | 68.96768 | 78.59939 | 38163 ft | 479 kts | 259° |
| 2026-04-21 15:08 | 68.95250 | 78.41903 | 38160 ft | 479 kts | 259° |
| 2026-04-21 15:08 | 68.93717 | 78.23889 | 38157 ft | 478 kts | 259° |
| 2026-04-21 15:09 | 68.92166 | 78.05900 | 38160 ft | 478 kts | 259° |
| 2026-04-21 15:09 | 68.90597 | 77.87950 | 38155 ft | 478 kts | 259° |
| 2026-04-21 15:10 | 68.89009 | 77.70025 | 38153 ft | 478 kts | 259° |
| 2026-04-21 15:10 | 68.87403 | 77.52133 | 38144 ft | 478 kts | 258° |
| 2026-04-21 15:11 | 68.85789 | 77.34391 | 38142 ft | 478 kts | 258° |
| 2026-04-21 15:11 | 68.84147 | 77.16567 | 38138 ft | 478 kts | 258° |
| 2026-04-21 15:12 | 68.82485 | 76.98759 | 38133 ft | 478 kts | 258° |
| 2026-04-21 15:12 | 68.80805 | 76.80987 | 38131 ft | 478 kts | 258° |
| 2026-04-21 15:13 | 68.79109 | 76.63258 | 38123 ft | 478 kts | 258° |
| 2026-04-21 15:13 | 68.77392 | 76.45542 | 38123 ft | 477 kts | 258° |
| 2026-04-21 15:14 | 68.75658 | 76.27858 | 38115 ft | 477 kts | 258° |
| 2026-04-21 15:14 | 68.73907 | 76.10222 | 38118 ft | 477 kts | 257° |
| 2026-04-21 15:15 | 68.72137 | 75.92602 | 38113 ft | 477 kts | 257° |
| 2026-04-21 15:15 | 68.70348 | 75.75013 | 38114 ft | 477 kts | 257° |
| 2026-04-21 15:16 | 68.68542 | 75.57455 | 38109 ft | 477 kts | 257° |
| 2026-04-21 15:16 | 68.66718 | 75.39928 | 38108 ft | 477 kts | 257° |
| 2026-04-21 15:17 | 68.64878 | 75.22455 | 38105 ft | 477 kts | 257° |
| 2026-04-21 15:17 | 68.63019 | 75.04995 | 38105 ft | 477 kts | 257° |
| 2026-04-21 15:18 | 68.61155 | 74.87692 | 38108 ft | 476 kts | 256° |
| 2026-04-21 15:18 | 68.59250 | 74.70196 | 38105 ft | 476 kts | 256° |
| 2026-04-21 15:19 | 68.57352 | 74.52956 | 38092 ft | 476 kts | 256° |
| 2026-04-21 15:19 | 68.55424 | 74.35643 | 38086 ft | 476 kts | 256° |
| 2026-04-21 15:20 | 68.53479 | 74.18357 | 38096 ft | 476 kts | 256° |
| 2026-04-21 15:20 | 68.51516 | 74.01104 | 38094 ft | 476 kts | 256° |
| 2026-04-21 15:21 | 68.49539 | 73.83896 | 38085 ft | 476 kts | 255° |
| 2026-04-21 15:21 | 68.47546 | 73.66713 | 38083 ft | 475 kts | 255° |
| 2026-04-21 15:22 | 68.45902 | 73.49361 | 38081 ft | 472 kts | 262° |
| 2026-04-21 15:22 | 68.44686 | 73.31806 | 38077 ft | 472 kts | 262° |
| 2026-04-21 15:23 | 68.43460 | 73.14283 | 38075 ft | 472 kts | 262° |
| 2026-04-21 15:23 | 68.42190 | 72.96770 | 38072 ft | 472 kts | 261° |
| 2026-04-21 15:24 | 68.40890 | 72.79286 | 38071 ft | 472 kts | 261° |
| 2026-04-21 15:24 | 68.39569 | 72.61807 | 38067 ft | 472 kts | 261° |
| 2026-04-21 15:25 | 68.38232 | 72.44364 | 38062 ft | 472 kts | 261° |
| 2026-04-21 15:25 | 68.36880 | 72.26976 | 38055 ft | 472 kts | 261° |
| 2026-04-21 15:26 | 68.35506 | 72.09558 | 38060 ft | 472 kts | 261° |
| 2026-04-21 15:26 | 68.34117 | 71.92204 | 38058 ft | 472 kts | 260° |
| 2026-04-21 15:27 | 68.32949 | 71.77788 | 38050 ft | 472 kts | 260° |
| 2026-04-21 15:27 | 68.31287 | 71.57560 | 38048 ft | 471 kts | 260° |
| 2026-04-21 15:28 | 68.30091 | 71.43198 | 38058 ft | 471 kts | 260° |
| 2026-04-21 15:28 | 68.28400 | 71.23137 | 38043 ft | 471 kts | 259° |
| 2026-04-21 15:29 | 68.27162 | 71.08680 | 38037 ft | 471 kts | 259° |
| 2026-04-21 15:29 | 68.25669 | 70.91465 | 38047 ft | 471 kts | 259° |
| 2026-04-21 15:30 | 68.24161 | 70.74268 | 38041 ft | 471 kts | 259° |
| 2026-04-21 15:30 | 68.22635 | 70.57079 | 38038 ft | 471 kts | 259° |
| 2026-04-21 15:31 | 68.21092 | 70.39921 | 38041 ft | 472 kts | 259° |
| 2026-04-21 15:31 | 68.19542 | 70.22904 | 38039 ft | 472 kts | 259° |
| 2026-04-21 15:32 | 68.17963 | 70.05783 | 38036 ft | 472 kts | 258° |
| 2026-04-21 15:32 | 68.16366 | 69.88681 | 38028 ft | 472 kts | 258° |
| 2026-04-21 15:33 | 68.14753 | 69.71620 | 38028 ft | 472 kts | 258° |
| 2026-04-21 15:33 | 68.13122 | 69.54575 | 38026 ft | 471 kts | 258° |
| 2026-04-21 15:34 | 68.11474 | 69.37562 | 38025 ft | 471 kts | 258° |
| 2026-04-21 15:34 | 68.09809 | 69.20581 | 38020 ft | 471 kts | 258° |
| 2026-04-21 15:35 | 68.08127 | 69.03630 | 38020 ft | 471 kts | 257° |
| 2026-04-21 15:35 | 68.06429 | 68.86711 | 38014 ft | 471 kts | 257° |
| 2026-04-21 15:36 | 68.04712 | 68.69804 | 38015 ft | 471 kts | 257° |
| 2026-04-21 15:36 | 68.02978 | 68.52922 | 38015 ft | 471 kts | 257° |
| 2026-04-21 15:37 | 68.01227 | 68.36066 | 38016 ft | 471 kts | 257° |
| 2026-04-21 15:37 | 67.99461 | 68.19256 | 38014 ft | 471 kts | 256° |
| 2026-04-21 15:38 | 67.97675 | 68.02446 | 38015 ft | 471 kts | 256° |
| 2026-04-21 15:38 | 67.95872 | 67.85658 | 38017 ft | 471 kts | 256° |
| 2026-04-21 15:39 | 67.94052 | 67.68883 | 38010 ft | 472 kts | 256° |
| 2026-04-21 15:39 | 67.92216 | 67.52133 | 38013 ft | 472 kts | 256° |
| 2026-04-21 15:40 | 67.90352 | 67.35431 | 38007 ft | 472 kts | 256° |
| 2026-04-21 15:40 | 67.88469 | 67.18760 | 38007 ft | 471 kts | 255° |
| 2026-04-21 15:41 | 67.86572 | 67.02110 | 38008 ft | 471 kts | 255° |
| 2026-04-21 15:41 | 67.84675 | 66.85599 | 38001 ft | 471 kts | 255° |
| 2026-04-21 15:42 | 67.82752 | 66.69034 | 38008 ft | 471 kts | 255° |
| 2026-04-21 15:42 | 67.80809 | 66.52471 | 38014 ft | 471 kts | 255° |
| 2026-04-21 15:43 | 67.78855 | 66.35930 | 38010 ft | 472 kts | 255° |
| 2026-04-21 15:43 | 67.76885 | 66.19407 | 38014 ft | 472 kts | 255° |
| 2026-04-21 15:44 | 67.74896 | 66.02899 | 38024 ft | 472 kts | 254° |
| 2026-04-21 15:44 | 67.72894 | 65.86417 | 38013 ft | 472 kts | 254° |
| 2026-04-21 15:45 | 67.70876 | 65.69983 | 38026 ft | 472 kts | 254° |
| 2026-04-21 15:45 | 67.68845 | 65.53541 | 38024 ft | 472 kts | 254° |
| 2026-04-21 15:46 | 67.66802 | 65.37131 | 38021 ft | 472 kts | 254° |
| 2026-04-21 15:46 | 67.64740 | 65.20728 | 38020 ft | 472 kts | 253° |
| 2026-04-21 15:47 | 67.62665 | 65.04362 | 38023 ft | 473 kts | 253° |
| 2026-04-21 15:47 | 67.60571 | 64.88010 | 38021 ft | 473 kts | 253° |
| 2026-04-21 15:48 | 67.58484 | 64.71795 | 38015 ft | 473 kts | 253° |
| 2026-04-21 15:48 | 67.56374 | 64.55483 | 38005 ft | 473 kts | 253° |
| 2026-04-21 15:49 | 67.54250 | 64.39215 | 38006 ft | 473 kts | 253° |
| 2026-04-21 15:49 | 67.52110 | 64.22974 | 37998 ft | 472 kts | 253° |
| 2026-04-21 15:50 | 67.49954 | 64.06758 | 38000 ft | 472 kts | 253° |
| 2026-04-21 15:50 | 67.47451 | 63.90920 | 38003 ft | 474 kts | 245° |
| 2026-04-21 15:51 | 67.44439 | 63.75619 | 37998 ft | 474 kts | 245° |
| 2026-04-21 15:51 | 67.41405 | 63.60365 | 37995 ft | 474 kts | 245° |
| 2026-04-21 15:52 | 67.38386 | 63.45116 | 37995 ft | 474 kts | 245° |
| 2026-04-21 15:52 | 67.35368 | 63.29902 | 37995 ft | 474 kts | 245° |
| 2026-04-21 15:53 | 67.32337 | 63.14722 | 37994 ft | 474 kts | 245° |
| 2026-04-21 15:53 | 67.29287 | 62.99565 | 37997 ft | 474 kts | 244° |
| 2026-04-21 15:54 | 67.26226 | 62.84471 | 37989 ft | 474 kts | 244° |
| 2026-04-21 15:54 | 67.23151 | 62.69411 | 37999 ft | 474 kts | 244° |
| 2026-04-21 15:55 | 67.20061 | 62.54384 | 37999 ft | 474 kts | 244° |
| 2026-04-21 15:55 | 67.16963 | 62.39409 | 37991 ft | 474 kts | 244° |
| 2026-04-21 15:56 | 67.13874 | 62.24560 | 37981 ft | 474 kts | 244° |
| 2026-04-21 15:56 | 67.10766 | 62.09632 | 37980 ft | 473 kts | 244° |
| 2026-04-21 15:57 | 67.07651 | 61.94751 | 37982 ft | 473 kts | 244° |
| 2026-04-21 15:57 | 67.04524 | 61.79923 | 37982 ft | 473 kts | 243° |
| 2026-04-21 15:58 | 67.01380 | 61.65123 | 37974 ft | 473 kts | 243° |
| 2026-04-21 15:58 | 66.98225 | 61.50375 | 37975 ft | 473 kts | 243° |
| 2026-04-21 15:59 | 66.95057 | 61.35671 | 37969 ft | 473 kts | 243° |
| 2026-04-21 15:59 | 66.91873 | 61.20991 | 37969 ft | 473 kts | 243° |
| 2026-04-21 16:00 | 66.88677 | 61.06357 | 37968 ft | 473 kts | 243° |
| 2026-04-21 16:00 | 66.85464 | 60.91744 | 37963 ft | 473 kts | 243° |
| 2026-04-21 16:01 | 66.82241 | 60.77184 | 37962 ft | 473 kts | 242° |
| 2026-04-21 16:01 | 66.79001 | 60.62649 | 37956 ft | 473 kts | 242° |
| 2026-04-21 16:02 | 66.75748 | 60.48149 | 37962 ft | 473 kts | 242° |
| 2026-04-21 16:02 | 66.72487 | 60.33715 | 37961 ft | 473 kts | 242° |
| 2026-04-21 16:03 | 66.69209 | 60.19300 | 37960 ft | 473 kts | 242° |
| 2026-04-21 16:03 | 66.65920 | 60.04932 | 37955 ft | 473 kts | 242° |
| 2026-04-21 16:04 | 66.62615 | 59.90586 | 37959 ft | 473 kts | 242° |
| 2026-04-21 16:04 | 66.59296 | 59.76277 | 37951 ft | 473 kts | 242° |
| 2026-04-21 16:05 | 66.55970 | 59.62014 | 37956 ft | 473 kts | 241° |
| 2026-04-21 16:05 | 66.52621 | 59.47775 | 37951 ft | 474 kts | 241° |
| 2026-04-21 16:06 | 66.49280 | 59.33680 | 37954 ft | 474 kts | 241° |
| 2026-04-21 16:06 | 66.45900 | 59.19501 | 37954 ft | 474 kts | 241° |
| 2026-04-21 16:07 | 66.42509 | 59.05357 | 37956 ft | 474 kts | 241° |
| 2026-04-21 16:07 | 66.39103 | 58.91240 | 37959 ft | 475 kts | 240° |
| 2026-04-21 16:08 | 66.33967 | 58.70127 | 37969 ft | 475 kts | 240° |
| 2026-04-21 16:09 | 66.30527 | 58.56095 | 37952 ft | 475 kts | 240° |
| 2026-04-21 16:09 | 66.27071 | 58.42092 | 37948 ft | 476 kts | 240° |
| 2026-04-21 16:10 | 66.23601 | 58.28114 | 37948 ft | 476 kts | 240° |
| 2026-04-21 16:10 | 66.20121 | 58.14175 | 37958 ft | 476 kts | 240° |
| 2026-04-21 16:11 | 66.16631 | 58.00256 | 37956 ft | 476 kts | 240° |
| 2026-04-21 16:11 | 66.13140 | 57.86346 | 37949 ft | 476 kts | 240° |
| 2026-04-21 16:12 | 66.10228 | 57.74808 | 37952 ft | 477 kts | 240° |
| 2026-04-21 16:12 | 66.06118 | 57.58629 | 37953 ft | 477 kts | 240° |
| 2026-04-21 16:13 | 66.02609 | 57.44902 | 37950 ft | 477 kts | 239° |
| 2026-04-21 16:13 | 65.99045 | 57.31148 | 37949 ft | 477 kts | 239° |
| 2026-04-21 16:14 | 65.95377 | 57.17575 | 37951 ft | 478 kts | 238° |
| 2026-04-21 16:14 | 65.91684 | 57.04035 | 37947 ft | 478 kts | 238° |
| 2026-04-21 16:15 | 65.87992 | 56.90500 | 37948 ft | 478 kts | 238° |
| 2026-04-21 16:15 | 65.84293 | 56.76990 | 37945 ft | 478 kts | 238° |
| 2026-04-21 16:16 | 65.80541 | 56.63570 | 37952 ft | 479 kts | 235° |
| 2026-04-21 16:16 | 65.76952 | 56.53271 | 37956 ft | 481 kts | 230° |
| 2026-04-21 16:17 | 65.72463 | 56.41209 | 37946 ft | 481 kts | 230° |
| 2026-04-21 16:17 | 65.67971 | 56.29161 | 37943 ft | 481 kts | 230° |
| 2026-04-21 16:18 | 65.63484 | 56.17091 | 37954 ft | 481 kts | 230° |
| 2026-04-21 16:18 | 65.59000 | 56.05049 | 37952 ft | 482 kts | 230° |
| 2026-04-21 16:19 | 65.54503 | 55.93038 | 37945 ft | 482 kts | 230° |
| 2026-04-21 16:19 | 65.50000 | 55.81080 | 37946 ft | 482 kts | 229° |
| 2026-04-21 16:20 | 65.45510 | 55.69225 | 37949 ft | 482 kts | 229° |
| 2026-04-21 16:20 | 65.40958 | 55.57274 | 37945 ft | 482 kts | 229° |
| 2026-04-21 16:21 | 65.36455 | 55.45517 | 37947 ft | 481 kts | 229° |
| 2026-04-21 16:21 | 65.31920 | 55.33738 | 37947 ft | 482 kts | 229° |
| 2026-04-21 16:22 | 65.27366 | 55.21979 | 37945 ft | 482 kts | 229° |
| 2026-04-21 16:22 | 65.22806 | 55.10264 | 37947 ft | 482 kts | 229° |
| 2026-04-21 16:23 | 65.18235 | 54.98586 | 37944 ft | 482 kts | 229° |
| 2026-04-21 16:23 | 65.13649 | 54.86934 | 37950 ft | 482 kts | 229° |
| 2026-04-21 16:24 | 65.09051 | 54.75313 | 37951 ft | 483 kts | 228° |
| 2026-04-21 16:24 | 65.04445 | 54.63738 | 37942 ft | 483 kts | 227° |
| 2026-04-21 16:25 | 64.99833 | 54.52207 | 37948 ft | 483 kts | 227° |
| 2026-04-21 16:25 | 64.95208 | 54.40708 | 37944 ft | 482 kts | 227° |
| 2026-04-21 16:26 | 64.90582 | 54.29266 | 37943 ft | 482 kts | 227° |
| 2026-04-21 16:26 | 64.85941 | 54.17849 | 37941 ft | 482 kts | 227° |
| 2026-04-21 16:27 | 64.81291 | 54.06468 | 37941 ft | 483 kts | 227° |
| 2026-04-21 16:27 | 64.76632 | 53.95128 | 37943 ft | 483 kts | 227° |
| 2026-04-21 16:28 | 64.71966 | 53.83831 | 37941 ft | 483 kts | 227° |
| 2026-04-21 16:28 | 64.67287 | 53.72562 | 37939 ft | 483 kts | 226° |
| 2026-04-21 16:29 | 64.62601 | 53.61336 | 37939 ft | 483 kts | 226° |
| 2026-04-21 16:29 | 64.57903 | 53.50138 | 37935 ft | 483 kts | 226° |
| 2026-04-21 16:30 | 64.53226 | 53.39051 | 37938 ft | 483 kts | 226° |
| 2026-04-21 16:30 | 64.48510 | 53.27929 | 37938 ft | 483 kts | 226° |
| 2026-04-21 16:31 | 64.43786 | 53.16844 | 37932 ft | 483 kts | 226° |
| 2026-04-21 16:31 | 64.39049 | 53.05788 | 37935 ft | 483 kts | 226° |
| 2026-04-21 16:32 | 64.34311 | 52.94785 | 37934 ft | 484 kts | 226° |
| 2026-04-21 16:32 | 64.29557 | 52.83804 | 37931 ft | 484 kts | 226° |
| 2026-04-21 16:33 | 64.24795 | 52.72859 | 37931 ft | 484 kts | 225° |
| 2026-04-21 16:33 | 64.20025 | 52.61947 | 37928 ft | 484 kts | 225° |
| 2026-04-21 16:34 | 64.15248 | 52.51076 | 37929 ft | 484 kts | 225° |
| 2026-04-21 16:34 | 64.10464 | 52.40252 | 37927 ft | 484 kts | 225° |
| 2026-04-21 16:35 | 64.05670 | 52.29452 | 37927 ft | 484 kts | 225° |
| 2026-04-21 16:35 | 64.00871 | 52.18689 | 37922 ft | 484 kts | 225° |
| 2026-04-21 16:36 | 63.96063 | 52.07960 | 37921 ft | 484 kts | 225° |
| 2026-04-21 16:36 | 63.91249 | 51.97271 | 37916 ft | 484 kts | 225° |
| 2026-04-21 16:37 | 63.86429 | 51.86625 | 37918 ft | 484 kts | 225° |
| 2026-04-21 16:37 | 63.81597 | 51.76004 | 37913 ft | 484 kts | 225° |
| 2026-04-21 16:38 | 63.76758 | 51.65421 | 37912 ft | 484 kts | 224° |
| 2026-04-21 16:38 | 63.71910 | 51.54871 | 37909 ft | 484 kts | 224° |
| 2026-04-21 16:39 | 63.67056 | 51.44353 | 37904 ft | 484 kts | 224° |
| 2026-04-21 16:39 | 63.62219 | 51.33954 | 37906 ft | 484 kts | 224° |
| 2026-04-21 16:40 | 63.57325 | 51.23552 | 37903 ft | 484 kts | 224° |
| 2026-04-21 16:40 | 63.52425 | 51.13188 | 37903 ft | 484 kts | 224° |
| 2026-04-21 16:41 | 63.47522 | 51.02857 | 37903 ft | 484 kts | 224° |
| 2026-04-21 16:41 | 63.42609 | 50.92551 | 37900 ft | 484 kts | 224° |
| 2026-04-21 16:42 | 63.37691 | 50.82283 | 37895 ft | 484 kts | 224° |
| 2026-04-21 16:42 | 63.32762 | 50.72043 | 37897 ft | 484 kts | 223° |
| 2026-04-21 16:43 | 63.27824 | 50.61835 | 37889 ft | 485 kts | 223° |
| 2026-04-21 16:43 | 63.22876 | 50.51658 | 37890 ft | 485 kts | 223° |
| 2026-04-21 16:44 | 63.22076 | 50.50016 | 37890 ft | 485 kts | 223° |